sensor_id;sensor_type;location;lat;lon;timestamp;P1;durP1;ratioP1;P2;durP2;ratioP2
77571;SDS011;67214;47.454;18.966;2023-04-15T00:00:32;13.45;;;10.03;;
77571;SDS011;67214;47.454;18.966;2023-04-15T00:02:59;11.53;;;9.18;;
77571;SDS011;67214;47.454;18.966;2023-04-15T00:05:30;12.10;;;9.78;;
77571;SDS011;67214;47.454;18.966;2023-04-15T00:08:00;11.63;;;8.83;;
77571;SDS011;67214;47.454;18.966;2023-04-15T00:10:27;12.13;;;9.33;;
77571;SDS011;67214;47.454;18.966;2023-04-15T00:12:54;11.08;;;8.60;;
77571;SDS011;67214;47.454;18.966;2023-04-15T00:15:23;9.98;;;8.33;;
77571;SDS011;67214;47.454;18.966;2023-04-15T00:17:52;11.18;;;8.75;;
77571;SDS011;67214;47.454;18.966;2023-04-15T00:20:19;11.57;;;8.78;;
77571;SDS011;67214;47.454;18.966;2023-04-15T00:22:47;10.80;;;8.75;;
77571;SDS011;67214;47.454;18.966;2023-04-15T00:25:14;11.22;;;8.38;;
77571;SDS011;67214;47.454;18.966;2023-04-15T00:27:42;11.90;;;8.98;;
77571;SDS011;67214;47.454;18.966;2023-04-15T00:30:10;11.05;;;8.38;;
77571;SDS011;67214;47.454;18.966;2023-04-15T00:32:37;9.33;;;7.70;;
77571;SDS011;67214;47.454;18.966;2023-04-15T00:35:05;12.00;;;9.00;;
77571;SDS011;67214;47.454;18.966;2023-04-15T00:37:33;9.35;;;7.47;;
77571;SDS011;67214;47.454;18.966;2023-04-15T00:40:01;11.95;;;8.05;;
77571;SDS011;67214;47.454;18.966;2023-04-15T00:42:30;8.03;;;7.20;;
77571;SDS011;67214;47.454;18.966;2023-04-15T00:44:59;7.78;;;6.00;;
77571;SDS011;67214;47.454;18.966;2023-04-15T00:47:26;9.38;;;6.22;;
77571;SDS011;67214;47.454;18.966;2023-04-15T00:49:56;7.90;;;5.90;;
77571;SDS011;67214;47.454;18.966;2023-04-15T00:52:24;7.42;;;6.33;;
77571;SDS011;67214;47.454;18.966;2023-04-15T00:54:51;8.50;;;6.72;;
77571;SDS011;67214;47.454;18.966;2023-04-15T00:57:19;6.35;;;5.58;;
77571;SDS011;67214;47.454;18.966;2023-04-15T00:59:48;7.80;;;6.25;;
77571;SDS011;67214;47.454;18.966;2023-04-15T01:02:17;8.10;;;6.65;;
77571;SDS011;67214;47.454;18.966;2023-04-15T01:04:45;9.15;;;6.50;;
77571;SDS011;67214;47.454;18.966;2023-04-15T01:07:12;8.25;;;6.53;;
77571;SDS011;67214;47.454;18.966;2023-04-15T01:09:40;8.65;;;6.30;;
77571;SDS011;67214;47.454;18.966;2023-04-15T01:12:09;8.15;;;6.35;;
77571;SDS011;67214;47.454;18.966;2023-04-15T01:14:45;9.20;;;6.58;;
77571;SDS011;67214;47.454;18.966;2023-04-15T01:17:13;8.10;;;5.95;;
77571;SDS011;67214;47.454;18.966;2023-04-15T01:19:40;8.78;;;6.15;;
77571;SDS011;67214;47.454;18.966;2023-04-15T01:22:08;8.03;;;6.30;;
77571;SDS011;67214;47.454;18.966;2023-04-15T01:24:36;7.83;;;6.60;;
77571;SDS011;67214;47.454;18.966;2023-04-15T01:27:04;6.87;;;5.62;;
77571;SDS011;67214;47.454;18.966;2023-04-15T01:29:35;9.18;;;5.25;;
77571;SDS011;67214;47.454;18.966;2023-04-15T01:32:03;8.53;;;5.45;;
77571;SDS011;67214;47.454;18.966;2023-04-15T01:34:32;8.23;;;6.37;;
77571;SDS011;67214;47.454;18.966;2023-04-15T01:37:00;8.13;;;6.50;;
77571;SDS011;67214;47.454;18.966;2023-04-15T01:39:27;10.00;;;7.10;;
77571;SDS011;67214;47.454;18.966;2023-04-15T01:41:56;9.43;;;6.37;;
77571;SDS011;67214;47.454;18.966;2023-04-15T01:44:23;9.18;;;6.90;;
77571;SDS011;67214;47.454;18.966;2023-04-15T01:46:52;8.15;;;6.65;;
77571;SDS011;67214;47.454;18.966;2023-04-15T01:49:19;9.55;;;6.17;;
77571;SDS011;67214;47.454;18.966;2023-04-15T01:51:47;7.87;;;6.12;;
77571;SDS011;67214;47.454;18.966;2023-04-15T01:54:15;8.83;;;6.47;;
77571;SDS011;67214;47.454;18.966;2023-04-15T01:56:42;8.10;;;6.25;;
77571;SDS011;67214;47.454;18.966;2023-04-15T01:59:09;8.75;;;7.12;;
77571;SDS011;67214;47.454;18.966;2023-04-15T02:01:37;9.93;;;7.92;;
77571;SDS011;67214;47.454;18.966;2023-04-15T02:04:05;9.95;;;7.03;;
77571;SDS011;67214;47.454;18.966;2023-04-15T02:06:34;10.38;;;8.08;;
77571;SDS011;67214;47.454;18.966;2023-04-15T02:09:02;10.90;;;8.45;;
77571;SDS011;67214;47.454;18.966;2023-04-15T02:11:29;9.60;;;7.33;;
77571;SDS011;67214;47.454;18.966;2023-04-15T02:13:57;8.40;;;7.25;;
77571;SDS011;67214;47.454;18.966;2023-04-15T02:16:24;10.40;;;7.50;;
77571;SDS011;67214;47.454;18.966;2023-04-15T02:18:52;10.45;;;7.83;;
77571;SDS011;67214;47.454;18.966;2023-04-15T02:21:19;13.25;;;9.45;;
77571;SDS011;67214;47.454;18.966;2023-04-15T02:23:47;13.03;;;9.60;;
77571;SDS011;67214;47.454;18.966;2023-04-15T02:26:15;11.45;;;8.90;;
77571;SDS011;67214;47.454;18.966;2023-04-15T02:28:43;13.28;;;9.38;;
77571;SDS011;67214;47.454;18.966;2023-04-15T02:31:10;13.62;;;8.98;;
77571;SDS011;67214;47.454;18.966;2023-04-15T02:33:38;13.80;;;9.00;;
77571;SDS011;67214;47.454;18.966;2023-04-15T02:36:05;11.90;;;9.23;;
77571;SDS011;67214;47.454;18.966;2023-04-15T02:38:33;13.18;;;9.50;;
77571;SDS011;67214;47.454;18.966;2023-04-15T02:41:02;12.28;;;10.03;;
77571;SDS011;67214;47.454;18.966;2023-04-15T02:43:30;12.13;;;9.08;;
77571;SDS011;67214;47.454;18.966;2023-04-15T02:45:58;12.28;;;8.75;;
77571;SDS011;67214;47.454;18.966;2023-04-15T02:48:25;11.63;;;8.90;;
77571;SDS011;67214;47.454;18.966;2023-04-15T02:50:53;13.72;;;9.23;;
77571;SDS011;67214;47.454;18.966;2023-04-15T02:53:21;12.47;;;10.15;;
77571;SDS011;67214;47.454;18.966;2023-04-15T02:55:51;14.03;;;8.65;;
77571;SDS011;67214;47.454;18.966;2023-04-15T02:58:18;12.55;;;9.43;;
77571;SDS011;67214;47.454;18.966;2023-04-15T03:00:46;11.50;;;9.45;;
77571;SDS011;67214;47.454;18.966;2023-04-15T03:03:15;13.78;;;9.83;;
77571;SDS011;67214;47.454;18.966;2023-04-15T03:05:43;12.45;;;9.40;;
77571;SDS011;67214;47.454;18.966;2023-04-15T03:08:11;11.08;;;8.38;;
77571;SDS011;67214;47.454;18.966;2023-04-15T03:10:39;12.73;;;8.68;;
77571;SDS011;67214;47.454;18.966;2023-04-15T03:13:08;11.05;;;8.80;;
77571;SDS011;67214;47.454;18.966;2023-04-15T03:15:35;12.07;;;9.38;;
77571;SDS011;67214;47.454;18.966;2023-04-15T03:18:03;11.53;;;8.53;;
77571;SDS011;67214;47.454;18.966;2023-04-15T03:20:30;9.90;;;7.70;;
77571;SDS011;67214;47.454;18.966;2023-04-15T03:22:58;11.85;;;8.80;;
77571;SDS011;67214;47.454;18.966;2023-04-15T03:25:25;10.13;;;8.18;;
77571;SDS011;67214;47.454;18.966;2023-04-15T03:27:52;10.85;;;7.97;;
77571;SDS011;67214;47.454;18.966;2023-04-15T03:30:20;10.60;;;8.45;;
77571;SDS011;67214;47.454;18.966;2023-04-15T03:32:47;10.28;;;7.65;;
77571;SDS011;67214;47.454;18.966;2023-04-15T03:35:15;10.90;;;7.12;;
77571;SDS011;67214;47.454;18.966;2023-04-15T03:37:42;9.95;;;6.67;;
77571;SDS011;67214;47.454;18.966;2023-04-15T03:40:10;9.35;;;7.50;;
77571;SDS011;67214;47.454;18.966;2023-04-15T03:42:38;9.93;;;7.58;;
77571;SDS011;67214;47.454;18.966;2023-04-15T03:45:06;9.18;;;7.62;;
77571;SDS011;67214;47.454;18.966;2023-04-15T03:47:34;9.03;;;7.58;;
77571;SDS011;67214;47.454;18.966;2023-04-15T03:50:01;10.00;;;7.53;;
77571;SDS011;67214;47.454;18.966;2023-04-15T03:52:28;11.20;;;8.10;;
77571;SDS011;67214;47.454;18.966;2023-04-15T03:54:56;9.63;;;7.83;;
77571;SDS011;67214;47.454;18.966;2023-04-15T03:57:24;8.68;;;7.20;;
77571;SDS011;67214;47.454;18.966;2023-04-15T03:59:52;10.53;;;8.00;;
77571;SDS011;67214;47.454;18.966;2023-04-15T04:02:19;10.00;;;7.33;;
77571;SDS011;67214;47.454;18.966;2023-04-15T04:04:47;8.63;;;7.03;;
77571;SDS011;67214;47.454;18.966;2023-04-15T04:07:15;9.78;;;7.33;;
77571;SDS011;67214;47.454;18.966;2023-04-15T04:09:43;11.03;;;7.58;;
77571;SDS011;67214;47.454;18.966;2023-04-15T04:12:11;10.40;;;7.90;;
77571;SDS011;67214;47.454;18.966;2023-04-15T04:14:38;9.35;;;7.78;;
77571;SDS011;67214;47.454;18.966;2023-04-15T04:17:05;12.25;;;7.85;;
77571;SDS011;67214;47.454;18.966;2023-04-15T04:19:33;11.83;;;8.78;;
77571;SDS011;67214;47.454;18.966;2023-04-15T04:22:01;9.48;;;7.90;;
77571;SDS011;67214;47.454;18.966;2023-04-15T04:24:28;13.98;;;8.55;;
77571;SDS011;67214;47.454;18.966;2023-04-15T04:26:56;10.63;;;8.63;;
77571;SDS011;67214;47.454;18.966;2023-04-15T04:29:23;11.45;;;7.85;;
77571;SDS011;67214;47.454;18.966;2023-04-15T04:31:51;10.72;;;7.95;;
77571;SDS011;67214;47.454;18.966;2023-04-15T04:34:19;10.30;;;7.65;;
77571;SDS011;67214;47.454;18.966;2023-04-15T04:36:46;12.85;;;8.65;;
77571;SDS011;67214;47.454;18.966;2023-04-15T04:39:13;11.20;;;8.00;;
77571;SDS011;67214;47.454;18.966;2023-04-15T04:41:41;9.88;;;7.60;;
77571;SDS011;67214;47.454;18.966;2023-04-15T04:44:09;10.15;;;7.53;;
77571;SDS011;67214;47.454;18.966;2023-04-15T04:46:36;9.88;;;8.05;;
77571;SDS011;67214;47.454;18.966;2023-04-15T04:49:03;9.45;;;7.85;;
77571;SDS011;67214;47.454;18.966;2023-04-15T04:51:31;8.35;;;7.22;;
77571;SDS011;67214;47.454;18.966;2023-04-15T04:53:59;9.38;;;7.35;;
77571;SDS011;67214;47.454;18.966;2023-04-15T04:56:26;8.13;;;7.30;;
77571;SDS011;67214;47.454;18.966;2023-04-15T04:58:54;10.05;;;7.58;;
77571;SDS011;67214;47.454;18.966;2023-04-15T05:01:21;8.63;;;6.95;;
77571;SDS011;67214;47.454;18.966;2023-04-15T05:03:50;8.58;;;7.25;;
77571;SDS011;67214;47.454;18.966;2023-04-15T05:06:18;7.40;;;6.55;;
77571;SDS011;67214;47.454;18.966;2023-04-15T05:08:45;11.15;;;6.65;;
77571;SDS011;67214;47.454;18.966;2023-04-15T05:11:13;7.12;;;6.05;;
77571;SDS011;67214;47.454;18.966;2023-04-15T05:13:41;8.80;;;7.28;;
77571;SDS011;67214;47.454;18.966;2023-04-15T05:16:08;9.88;;;7.62;;
77571;SDS011;67214;47.454;18.966;2023-04-15T05:18:36;11.70;;;8.28;;
77571;SDS011;67214;47.454;18.966;2023-04-15T05:21:03;8.75;;;7.22;;
77571;SDS011;67214;47.454;18.966;2023-04-15T05:23:31;9.85;;;6.85;;
77571;SDS011;67214;47.454;18.966;2023-04-15T05:25:59;8.93;;;7.58;;
77571;SDS011;67214;47.454;18.966;2023-04-15T05:28:26;10.18;;;7.72;;
77571;SDS011;67214;47.454;18.966;2023-04-15T05:30:54;9.53;;;7.47;;
77571;SDS011;67214;47.454;18.966;2023-04-15T05:33:21;9.30;;;6.67;;
77571;SDS011;67214;47.454;18.966;2023-04-15T05:35:49;10.00;;;8.13;;
77571;SDS011;67214;47.454;18.966;2023-04-15T05:38:16;9.90;;;7.45;;
77571;SDS011;67214;47.454;18.966;2023-04-15T05:40:44;10.95;;;8.00;;
77571;SDS011;67214;47.454;18.966;2023-04-15T05:43:11;10.05;;;7.58;;
77571;SDS011;67214;47.454;18.966;2023-04-15T05:45:39;12.70;;;8.48;;
77571;SDS011;67214;47.454;18.966;2023-04-15T05:48:07;8.95;;;7.33;;
77571;SDS011;67214;47.454;18.966;2023-04-15T05:50:34;11.90;;;7.90;;
77571;SDS011;67214;47.454;18.966;2023-04-15T05:53:02;10.65;;;7.95;;
77571;SDS011;67214;47.454;18.966;2023-04-15T05:55:29;10.50;;;7.80;;
77571;SDS011;67214;47.454;18.966;2023-04-15T05:57:57;10.88;;;8.00;;
77571;SDS011;67214;47.454;18.966;2023-04-15T06:00:24;9.38;;;8.15;;
77571;SDS011;67214;47.454;18.966;2023-04-15T06:02:52;11.05;;;8.00;;
77571;SDS011;67214;47.454;18.966;2023-04-15T06:05:19;10.15;;;8.38;;
77571;SDS011;67214;47.454;18.966;2023-04-15T06:07:47;9.40;;;7.60;;
77571;SDS011;67214;47.454;18.966;2023-04-15T06:10:15;11.12;;;8.68;;
77571;SDS011;67214;47.454;18.966;2023-04-15T06:12:43;11.83;;;8.53;;
77571;SDS011;67214;47.454;18.966;2023-04-15T06:15:11;9.60;;;8.35;;
77571;SDS011;67214;47.454;18.966;2023-04-15T06:17:38;9.78;;;8.18;;
77571;SDS011;67214;47.454;18.966;2023-04-15T06:20:06;9.60;;;6.95;;
77571;SDS011;67214;47.454;18.966;2023-04-15T06:22:35;8.48;;;6.80;;
77571;SDS011;67214;47.454;18.966;2023-04-15T06:25:04;10.90;;;6.58;;
77571;SDS011;67214;47.454;18.966;2023-04-15T06:27:33;7.17;;;6.00;;
77571;SDS011;67214;47.454;18.966;2023-04-15T06:30:01;6.55;;;5.60;;
77571;SDS011;67214;47.454;18.966;2023-04-15T06:32:28;6.10;;;5.42;;
77571;SDS011;67214;47.454;18.966;2023-04-15T06:34:57;6.55;;;5.55;;
77571;SDS011;67214;47.454;18.966;2023-04-15T06:37:24;7.87;;;5.72;;
77571;SDS011;67214;47.454;18.966;2023-04-15T06:39:52;6.67;;;5.20;;
77571;SDS011;67214;47.454;18.966;2023-04-15T06:42:19;7.53;;;5.55;;
77571;SDS011;67214;47.454;18.966;2023-04-15T06:44:47;6.58;;;5.42;;
77571;SDS011;67214;47.454;18.966;2023-04-15T06:47:14;5.58;;;4.87;;
77571;SDS011;67214;47.454;18.966;2023-04-15T06:49:42;5.75;;;5.15;;
77571;SDS011;67214;47.454;18.966;2023-04-15T06:52:09;7.37;;;5.15;;
77571;SDS011;67214;47.454;18.966;2023-04-15T06:54:37;6.90;;;5.55;;
77571;SDS011;67214;47.454;18.966;2023-04-15T06:57:05;7.40;;;4.67;;
77571;SDS011;67214;47.454;18.966;2023-04-15T06:59:33;6.47;;;4.70;;
77571;SDS011;67214;47.454;18.966;2023-04-15T07:02:01;4.87;;;3.90;;
77571;SDS011;67214;47.454;18.966;2023-04-15T07:04:29;5.22;;;4.15;;
77571;SDS011;67214;47.454;18.966;2023-04-15T07:06:57;7.37;;;5.50;;
77571;SDS011;67214;47.454;18.966;2023-04-15T07:09:25;6.62;;;4.30;;
77571;SDS011;67214;47.454;18.966;2023-04-15T07:11:52;5.67;;;4.75;;
77571;SDS011;67214;47.454;18.966;2023-04-15T07:14:20;7.03;;;4.65;;
77571;SDS011;67214;47.454;18.966;2023-04-15T07:16:47;5.45;;;3.77;;
77571;SDS011;67214;47.454;18.966;2023-04-15T07:19:15;3.42;;;2.87;;
77571;SDS011;67214;47.454;18.966;2023-04-15T07:21:42;3.47;;;3.10;;
77571;SDS011;67214;47.454;18.966;2023-04-15T07:24:09;4.20;;;3.15;;
77571;SDS011;67214;47.454;18.966;2023-04-15T07:26:37;4.78;;;3.35;;
77571;SDS011;67214;47.454;18.966;2023-04-15T07:29:04;4.80;;;3.02;;
77571;SDS011;67214;47.454;18.966;2023-04-15T07:31:32;3.52;;;2.65;;
77571;SDS011;67214;47.454;18.966;2023-04-15T07:34:01;3.55;;;2.83;;
77571;SDS011;67214;47.454;18.966;2023-04-15T07:36:29;3.60;;;2.42;;
77571;SDS011;67214;47.454;18.966;2023-04-15T07:38:57;3.50;;;2.42;;
77571;SDS011;67214;47.454;18.966;2023-04-15T07:41:26;3.67;;;2.37;;
77571;SDS011;67214;47.454;18.966;2023-04-15T07:43:53;4.75;;;1.90;;
77571;SDS011;67214;47.454;18.966;2023-04-15T07:46:20;3.05;;;1.67;;
77571;SDS011;67214;47.454;18.966;2023-04-15T07:48:50;2.65;;;2.10;;
77571;SDS011;67214;47.454;18.966;2023-04-15T07:51:18;3.17;;;2.02;;
77571;SDS011;67214;47.454;18.966;2023-04-15T07:53:46;2.58;;;2.10;;
77571;SDS011;67214;47.454;18.966;2023-04-15T07:56:15;6.28;;;4.67;;
77571;SDS011;67214;47.454;18.966;2023-04-15T07:58:42;7.85;;;6.47;;
77571;SDS011;67214;47.454;18.966;2023-04-15T08:01:10;20.52;;;12.07;;
77571;SDS011;67214;47.454;18.966;2023-04-15T08:03:37;5.30;;;2.95;;
77571;SDS011;67214;47.454;18.966;2023-04-15T08:06:05;7.58;;;3.33;;
77571;SDS011;67214;47.454;18.966;2023-04-15T08:08:33;5.20;;;2.92;;
77571;SDS011;67214;47.454;18.966;2023-04-15T08:11:01;7.30;;;4.80;;
77571;SDS011;67214;47.454;18.966;2023-04-15T08:13:28;4.40;;;3.12;;
77571;SDS011;67214;47.454;18.966;2023-04-15T08:18:50;3.17;;;1.77;;
77571;SDS011;67214;47.454;18.966;2023-04-15T08:21:18;4.37;;;2.00;;
77571;SDS011;67214;47.454;18.966;2023-04-15T08:23:46;3.42;;;2.62;;
77571;SDS011;67214;47.454;18.966;2023-04-15T08:26:15;5.03;;;3.30;;
77571;SDS011;67214;47.454;18.966;2023-04-15T08:28:43;7.90;;;3.92;;
77571;SDS011;67214;47.454;18.966;2023-04-15T08:31:12;6.72;;;4.25;;
77571;SDS011;67214;47.454;18.966;2023-04-15T08:33:41;8.13;;;5.17;;
77571;SDS011;67214;47.454;18.966;2023-04-15T08:36:08;6.78;;;4.62;;
77571;SDS011;67214;47.454;18.966;2023-04-15T08:38:36;5.80;;;4.35;;
77571;SDS011;67214;47.454;18.966;2023-04-15T08:41:09;8.18;;;4.28;;
77571;SDS011;67214;47.454;18.966;2023-04-15T08:43:41;7.37;;;4.10;;
77571;SDS011;67214;47.454;18.966;2023-04-15T08:46:08;8.30;;;4.25;;
77571;SDS011;67214;47.454;18.966;2023-04-15T08:48:37;5.22;;;3.47;;
77571;SDS011;67214;47.454;18.966;2023-04-15T08:51:05;7.42;;;4.05;;
77571;SDS011;67214;47.454;18.966;2023-04-15T08:53:34;5.90;;;3.27;;
77571;SDS011;67214;47.454;18.966;2023-04-15T08:56:03;5.05;;;3.12;;
77571;SDS011;67214;47.454;18.966;2023-04-15T08:58:33;4.80;;;3.25;;
77571;SDS011;67214;47.454;18.966;2023-04-15T09:01:02;5.03;;;2.90;;
77571;SDS011;67214;47.454;18.966;2023-04-15T09:03:30;6.95;;;3.27;;
77571;SDS011;67214;47.454;18.966;2023-04-15T09:05:58;5.45;;;2.83;;
77571;SDS011;67214;47.454;18.966;2023-04-15T09:08:26;5.97;;;3.80;;
77571;SDS011;67214;47.454;18.966;2023-04-15T09:10:55;4.08;;;3.20;;
77571;SDS011;67214;47.454;18.966;2023-04-15T09:13:23;4.45;;;3.15;;
77571;SDS011;67214;47.454;18.966;2023-04-15T09:15:50;6.50;;;3.92;;
77571;SDS011;67214;47.454;18.966;2023-04-15T09:18:28;6.47;;;4.50;;
77571;SDS011;67214;47.454;18.966;2023-04-15T09:21:03;9.13;;;5.42;;
77571;SDS011;67214;47.454;18.966;2023-04-15T09:23:33;6.10;;;4.53;;
77571;SDS011;67214;47.454;18.966;2023-04-15T09:26:01;6.40;;;5.05;;
77571;SDS011;67214;47.454;18.966;2023-04-15T09:28:30;7.80;;;6.10;;
77571;SDS011;67214;47.454;18.966;2023-04-15T09:30:58;6.22;;;3.65;;
77571;SDS011;67214;47.454;18.966;2023-04-15T09:33:27;6.97;;;4.90;;
77571;SDS011;67214;47.454;18.966;2023-04-15T09:35:56;6.90;;;4.17;;
77571;SDS011;67214;47.454;18.966;2023-04-15T09:38:31;5.37;;;3.37;;
77571;SDS011;67214;47.454;18.966;2023-04-15T09:40:58;3.30;;;2.67;;
77571;SDS011;67214;47.454;18.966;2023-04-15T09:43:41;3.22;;;2.05;;
77571;SDS011;67214;47.454;18.966;2023-04-15T09:46:10;1.62;;;1.22;;
77571;SDS011;67214;47.454;18.966;2023-04-15T09:48:37;1.17;;;0.70;;
77571;SDS011;67214;47.454;18.966;2023-04-15T09:51:04;1.10;;;0.80;;
77571;SDS011;67214;47.454;18.966;2023-04-15T09:53:33;2.72;;;1.57;;
77571;SDS011;67214;47.454;18.966;2023-04-15T09:56:02;3.00;;;0.95;;
77571;SDS011;67214;47.454;18.966;2023-04-15T09:58:33;5.83;;;2.12;;
77571;SDS011;67214;47.454;18.966;2023-04-15T10:01:03;2.58;;;1.60;;
77571;SDS011;67214;47.454;18.966;2023-04-15T10:03:34;4.85;;;2.65;;
77571;SDS011;67214;47.454;18.966;2023-04-15T10:06:02;2.90;;;1.85;;
77571;SDS011;67214;47.454;18.966;2023-04-15T10:08:30;2.17;;;1.70;;
77571;SDS011;67214;47.454;18.966;2023-04-15T10:11:02;1.75;;;1.50;;
77571;SDS011;67214;47.454;18.966;2023-04-15T10:13:30;3.17;;;0.75;;
77571;SDS011;67214;47.454;18.966;2023-04-15T10:16:11;1.05;;;0.60;;
77571;SDS011;67214;47.454;18.966;2023-04-15T10:18:37;0.70;;;0.60;;
77571;SDS011;67214;47.454;18.966;2023-04-15T10:21:06;1.07;;;0.80;;
77571;SDS011;67214;47.454;18.966;2023-04-15T10:23:35;1.50;;;0.93;;
77571;SDS011;67214;47.454;18.966;2023-04-15T10:26:03;2.40;;;1.15;;
77571;SDS011;67214;47.454;18.966;2023-04-15T10:28:31;5.00;;;1.37;;
77571;SDS011;67214;47.454;18.966;2023-04-15T10:31:00;1.05;;;0.80;;
77571;SDS011;67214;47.454;18.966;2023-04-15T10:33:30;1.15;;;0.75;;
77571;SDS011;67214;47.454;18.966;2023-04-15T10:35:59;1.52;;;0.90;;
77571;SDS011;67214;47.454;18.966;2023-04-15T10:38:37;2.50;;;1.12;;
77571;SDS011;67214;47.454;18.966;2023-04-15T10:41:13;3.02;;;1.70;;
77571;SDS011;67214;47.454;18.966;2023-04-15T10:43:49;2.40;;;1.82;;
77571;SDS011;67214;47.454;18.966;2023-04-15T10:46:16;2.35;;;2.15;;
77571;SDS011;67214;47.454;18.966;2023-04-15T10:48:48;3.17;;;2.90;;
77571;SDS011;67214;47.454;18.966;2023-04-15T10:51:27;2.12;;;1.67;;
77571;SDS011;67214;47.454;18.966;2023-04-15T10:53:59;1.75;;;1.65;;
77571;SDS011;67214;47.454;18.966;2023-04-15T10:56:27;3.35;;;2.90;;
77571;SDS011;67214;47.454;18.966;2023-04-15T10:58:57;2.25;;;2.02;;
77571;SDS011;67214;47.454;18.966;2023-04-15T11:02:11;3.60;;;2.47;;
77571;SDS011;67214;47.454;18.966;2023-04-15T11:04:14;5.70;;;4.25;;
77571;SDS011;67214;47.454;18.966;2023-04-15T11:06:43;2.12;;;1.72;;
77571;SDS011;67214;47.454;18.966;2023-04-15T11:09:29;7.42;;;5.20;;
77571;SDS011;67214;47.454;18.966;2023-04-15T11:14:38;3.05;;;2.62;;
77571;SDS011;67214;47.454;18.966;2023-04-15T11:17:07;1.90;;;1.42;;
77571;SDS011;67214;47.454;18.966;2023-04-15T11:19:36;1.72;;;1.35;;
77571;SDS011;67214;47.454;18.966;2023-04-15T11:22:12;1.40;;;1.10;;
77571;SDS011;67214;47.454;18.966;2023-04-15T11:24:36;2.25;;;0.80;;
77571;SDS011;67214;47.454;18.966;2023-04-15T11:27:21;4.17;;;1.98;;
77571;SDS011;67214;47.454;18.966;2023-04-15T11:29:49;2.75;;;1.25;;
77571;SDS011;67214;47.454;18.966;2023-04-15T11:32:17;1.65;;;1.07;;
77571;SDS011;67214;47.454;18.966;2023-04-15T11:34:46;2.58;;;1.15;;
77571;SDS011;67214;47.454;18.966;2023-04-15T11:37:13;1.32;;;1.20;;
77571;SDS011;67214;47.454;18.966;2023-04-15T11:39:41;1.65;;;1.00;;
77571;SDS011;67214;47.454;18.966;2023-04-15T11:42:17;1.95;;;1.30;;
77571;SDS011;67214;47.454;18.966;2023-04-15T11:44:45;1.25;;;0.80;;
77571;SDS011;67214;47.454;18.966;2023-04-15T11:47:22;1.35;;;0.98;;
77571;SDS011;67214;47.454;18.966;2023-04-15T11:49:50;1.72;;;0.93;;
77571;SDS011;67214;47.454;18.966;2023-04-15T11:52:17;1.62;;;0.93;;
77571;SDS011;67214;47.454;18.966;2023-04-15T11:54:45;1.50;;;0.90;;
77571;SDS011;67214;47.454;18.966;2023-04-15T11:57:12;2.20;;;1.10;;
77571;SDS011;67214;47.454;18.966;2023-04-15T11:59:41;4.67;;;1.40;;
77571;SDS011;67214;47.454;18.966;2023-04-15T12:02:10;2.25;;;1.20;;
77571;SDS011;67214;47.454;18.966;2023-04-15T12:04:38;2.25;;;1.30;;
77571;SDS011;67214;47.454;18.966;2023-04-15T12:07:06;1.40;;;1.05;;
77571;SDS011;67214;47.454;18.966;2023-04-15T12:09:38;1.87;;;1.40;;
77571;SDS011;67214;47.454;18.966;2023-04-15T12:12:04;3.62;;;1.77;;
77571;SDS011;67214;47.454;18.966;2023-04-15T12:14:32;1.75;;;1.25;;
77571;SDS011;67214;47.454;18.966;2023-04-15T12:17:01;3.47;;;1.57;;
77571;SDS011;67214;47.454;18.966;2023-04-15T12:19:34;2.27;;;1.70;;
77571;SDS011;67214;47.454;18.966;2023-04-15T12:22:04;2.85;;;1.45;;
77571;SDS011;67214;47.454;18.966;2023-04-15T12:24:35;4.80;;;1.65;;
77571;SDS011;67214;47.454;18.966;2023-04-15T12:27:04;3.15;;;1.47;;
77571;SDS011;67214;47.454;18.966;2023-04-15T12:29:37;2.20;;;1.30;;
77571;SDS011;67214;47.454;18.966;2023-04-15T12:34:42;1.80;;;1.12;;
77571;SDS011;67214;47.454;18.966;2023-04-15T12:37:17;4.53;;;1.50;;
77571;SDS011;67214;47.454;18.966;2023-04-15T12:39:46;2.10;;;1.47;;
77571;SDS011;67214;47.454;18.966;2023-04-15T12:42:15;1.70;;;1.25;;
77571;SDS011;67214;47.454;18.966;2023-04-15T12:44:43;2.05;;;1.32;;
77571;SDS011;67214;47.454;18.966;2023-04-15T12:47:10;3.37;;;1.30;;
77571;SDS011;67214;47.454;18.966;2023-04-15T12:49:38;1.62;;;1.20;;
77571;SDS011;67214;47.454;18.966;2023-04-15T12:52:07;2.10;;;0.90;;
77571;SDS011;67214;47.454;18.966;2023-04-15T12:54:36;2.72;;;0.95;;
77571;SDS011;67214;47.454;18.966;2023-04-15T12:57:05;2.30;;;1.47;;
77571;SDS011;67214;47.454;18.966;2023-04-15T12:59:34;3.02;;;1.70;;
77571;SDS011;67214;47.454;18.966;2023-04-15T13:02:03;4.28;;;1.20;;
77571;SDS011;67214;47.454;18.966;2023-04-15T13:04:30;1.85;;;1.27;;
77571;SDS011;67214;47.454;18.966;2023-04-15T13:06:58;4.60;;;1.17;;
77571;SDS011;67214;47.454;18.966;2023-04-15T13:09:27;3.33;;;1.52;;
77571;SDS011;67214;47.454;18.966;2023-04-15T13:11:56;3.47;;;2.30;;
77571;SDS011;67214;47.454;18.966;2023-04-15T13:14:24;4.10;;;1.65;;
77571;SDS011;67214;47.454;18.966;2023-04-15T13:16:51;1.80;;;1.50;;
77571;SDS011;67214;47.454;18.966;2023-04-15T13:19:19;5.03;;;1.30;;
77571;SDS011;67214;47.454;18.966;2023-04-15T13:21:46;1.45;;;0.90;;
77571;SDS011;67214;47.454;18.966;2023-04-15T13:24:14;2.40;;;1.50;;
77571;SDS011;67214;47.454;18.966;2023-04-15T13:26:41;2.05;;;1.55;;
77571;SDS011;67214;47.454;18.966;2023-04-15T13:29:09;2.60;;;1.10;;
77571;SDS011;67214;47.454;18.966;2023-04-15T13:31:38;2.37;;;1.72;;
77571;SDS011;67214;47.454;18.966;2023-04-15T13:34:05;2.17;;;1.37;;
77571;SDS011;67214;47.454;18.966;2023-04-15T13:36:32;2.98;;;1.20;;
77571;SDS011;67214;47.454;18.966;2023-04-15T13:39:00;3.80;;;1.52;;
77571;SDS011;67214;47.454;18.966;2023-04-15T13:41:28;1.82;;;1.42;;
77571;SDS011;67214;47.454;18.966;2023-04-15T13:43:55;4.67;;;1.50;;
77571;SDS011;67214;47.454;18.966;2023-04-15T13:46:23;2.20;;;1.22;;
77571;SDS011;67214;47.454;18.966;2023-04-15T13:48:50;1.85;;;1.35;;
77571;SDS011;67214;47.454;18.966;2023-04-15T13:51:18;3.45;;;1.70;;
77571;SDS011;67214;47.454;18.966;2023-04-15T13:53:46;2.55;;;1.95;;
77571;SDS011;67214;47.454;18.966;2023-04-15T13:56:13;3.05;;;2.22;;
77571;SDS011;67214;47.454;18.966;2023-04-15T13:58:40;2.72;;;1.32;;
77571;SDS011;67214;47.454;18.966;2023-04-15T14:01:08;1.47;;;0.98;;
77571;SDS011;67214;47.454;18.966;2023-04-15T14:03:36;0.72;;;0.60;;
77571;SDS011;67214;47.454;18.966;2023-04-15T14:06:03;2.25;;;1.17;;
77571;SDS011;67214;47.454;18.966;2023-04-15T14:08:31;5.10;;;2.83;;
77571;SDS011;67214;47.454;18.966;2023-04-15T14:10:59;4.72;;;2.40;;
77571;SDS011;67214;47.454;18.966;2023-04-15T14:13:26;2.87;;;1.30;;
77571;SDS011;67214;47.454;18.966;2023-04-15T14:15:55;13.30;;;7.22;;
77571;SDS011;67214;47.454;18.966;2023-04-15T14:18:23;2.42;;;1.90;;
77571;SDS011;67214;47.454;18.966;2023-04-15T14:20:51;2.60;;;1.72;;
77571;SDS011;67214;47.454;18.966;2023-04-15T14:23:18;2.40;;;1.72;;
77571;SDS011;67214;47.454;18.966;2023-04-15T14:25:46;2.12;;;1.40;;
77571;SDS011;67214;47.454;18.966;2023-04-15T14:28:15;3.67;;;1.37;;
77571;SDS011;67214;47.454;18.966;2023-04-15T14:30:43;2.00;;;1.70;;
77571;SDS011;67214;47.454;18.966;2023-04-15T14:33:10;3.30;;;1.12;;
77571;SDS011;67214;47.454;18.966;2023-04-15T14:35:38;2.20;;;1.20;;
77571;SDS011;67214;47.454;18.966;2023-04-15T14:38:05;3.08;;;1.30;;
77571;SDS011;67214;47.454;18.966;2023-04-15T14:40:34;2.85;;;1.37;;
77571;SDS011;67214;47.454;18.966;2023-04-15T14:43:05;2.55;;;1.80;;
77571;SDS011;67214;47.454;18.966;2023-04-15T14:45:32;3.05;;;2.08;;